createdAt,value
2023-03-03T00:00:54.609Z,82
2023-03-03T00:02:01.639Z,82
2023-03-03T00:03:09.833Z,82
2023-03-03T00:04:16.958Z,82
2023-03-03T00:05:23.946Z,82
2023-03-03T00:06:34.666Z,82
2023-03-03T00:07:42.000Z,82
2023-03-03T00:08:49.187Z,82
2023-03-03T00:09:59.614Z,82
2023-03-03T00:11:08.268Z,82
2023-03-03T00:12:16.974Z,82
2023-03-03T00:13:29.444Z,82
2023-03-03T00:14:37.805Z,82
2023-03-03T00:15:45.033Z,82
2023-03-03T00:16:52.089Z,82
2023-03-03T00:18:00.049Z,82
2023-03-03T00:19:07.110Z,82
2023-03-03T00:20:17.088Z,82
2023-03-03T00:21:32.130Z,82
2023-03-03T00:22:45.205Z,82
2023-03-03T00:23:53.548Z,82
2023-03-03T00:25:01.270Z,82
2023-03-03T00:26:19.300Z,82
2023-03-03T00:27:26.985Z,82
2023-03-03T00:28:33.953Z,82
2023-03-03T00:29:43.688Z,82
2023-03-03T00:30:53.780Z,82
2023-03-03T00:32:03.759Z,82
2023-03-03T00:33:18.780Z,82
2023-03-03T00:34:28.730Z,82
2023-03-03T00:35:38.418Z,82
2023-03-03T00:36:46.779Z,82
2023-03-03T00:37:54.241Z,82
2023-03-03T00:39:01.371Z,82
2023-03-03T00:40:16.414Z,82
2023-03-03T00:41:31.241Z,82
2023-03-03T00:42:38.623Z,82
2023-03-03T00:43:45.592Z,82
2023-03-03T00:44:55.222Z,82
2023-03-03T00:46:02.679Z,82
2023-03-03T00:47:15.416Z,82
2023-03-03T00:48:32.574Z,82
2023-03-03T00:49:42.098Z,82
2023-03-03T00:50:49.672Z,82
2023-03-03T00:51:56.636Z,82
2023-03-03T00:53:06.556Z,82
2023-03-03T00:54:19.836Z,82
2023-03-03T00:55:29.775Z,82
2023-03-03T00:56:36.843Z,82
2023-03-03T00:57:44.617Z,82
2023-03-03T00:58:54.274Z,82
2023-03-03T01:00:01.281Z,82
2023-03-03T01:01:10.452Z,82
2023-03-03T01:02:17.590Z,82
2023-03-03T01:03:25.059Z,82
2023-03-03T01:04:32.060Z,82
2023-03-03T01:05:39.116Z,82
2023-03-03T01:06:46.643Z,82
2023-03-03T01:07:53.638Z,82
2023-03-03T01:09:01.143Z,82
2023-03-03T01:10:08.442Z,83
2023-03-03T01:11:15.862Z,82
2023-03-03T01:12:26.625Z,82
2023-03-03T01:13:36.828Z,82
2023-03-03T01:14:42.095Z,82
2023-03-03T01:15:49.119Z,82
2023-03-03T01:16:56.059Z,82
2023-03-03T01:18:05.864Z,82
2023-03-03T01:19:12.839Z,82
2023-03-03T01:20:19.922Z,82
2023-03-03T01:21:27.862Z,82
2023-03-03T01:22:38.980Z,82
2023-03-03T01:23:48.003Z,82
2023-03-03T01:24:55.104Z,82
2023-03-03T01:26:02.018Z,82
2023-03-03T01:27:08.970Z,82
2023-03-03T01:28:19.576Z,82
2023-03-03T01:29:26.524Z,82
2023-03-03T01:30:40.495Z,82
2023-03-03T01:31:50.666Z,82
2023-03-03T01:33:01.216Z,82
2023-03-03T01:34:09.049Z,82
2023-03-03T01:35:16.013Z,82
2023-03-03T01:36:25.993Z,82
2023-03-03T01:37:33.838Z,82
2023-03-03T01:38:43.944Z,82
2023-03-03T01:39:51.273Z,82
2023-03-03T01:41:01.142Z,82
2023-03-03T01:42:09.040Z,82
2023-03-03T01:43:16.066Z,82
2023-03-03T01:44:23.405Z,82
2023-03-03T01:45:30.522Z,82
2023-03-03T01:46:45.507Z,82
2023-03-03T01:47:55.251Z,82
2023-03-03T01:49:05.210Z,82
2023-03-03T01:50:17.977Z,82
2023-03-03T01:51:30.001Z,82
2023-03-03T01:52:36.945Z,82
2023-03-03T01:53:51.797Z,82
2023-03-03T01:55:04.499Z,82
2023-03-03T01:56:17.346Z,82
2023-03-03T01:57:24.417Z,82
2023-03-03T01:58:31.622Z,82
2023-03-03T01:59:38.845Z,82
2023-03-03T02:00:45.812Z,82
2023-03-03T02:01:55.754Z,82
2023-03-03T02:03:02.624Z,82
2023-03-03T02:04:09.621Z,82
2023-03-03T02:05:16.837Z,82
2023-03-03T02:06:27.942Z,82
2023-03-03T02:07:35.065Z,82
2023-03-03T02:08:44.636Z,82
2023-03-03T02:10:02.560Z,82
2023-03-03T02:11:09.878Z,82
2023-03-03T02:12:17.761Z,82
2023-03-03T02:13:24.953Z,82
2023-03-03T02:14:32.007Z,82
2023-03-03T02:15:38.985Z,82
2023-03-03T02:16:46.035Z,82
2023-03-03T02:17:53.114Z,82
2023-03-03T02:19:00.138Z,82
2023-03-03T02:20:07.201Z,82
2023-03-03T02:21:19.370Z,82
2023-03-03T02:22:26.379Z,82
2023-03-03T02:23:33.380Z,82
2023-03-03T02:24:48.544Z,82
2023-03-03T02:25:58.543Z,82
2023-03-03T02:27:08.904Z,82
2023-03-03T02:28:15.955Z,82
2023-03-03T02:29:22.963Z,82
2023-03-03T02:30:29.859Z,82
2023-03-03T02:31:36.849Z,82
2023-03-03T02:32:46.890Z,82
2023-03-03T02:33:54.846Z,82
2023-03-03T02:35:02.117Z,82
2023-03-03T02:36:09.356Z,82
2023-03-03T02:37:16.406Z,82
2023-03-03T02:38:24.233Z,82
2023-03-03T02:39:34.275Z,82
2023-03-03T02:40:41.233Z,82
2023-03-03T02:41:55.781Z,82
2023-03-03T02:43:05.940Z,82
2023-03-03T02:44:15.922Z,82
2023-03-03T02:45:28.139Z,82
2023-03-03T02:46:35.033Z,82
2023-03-03T02:47:44.807Z,82
2023-03-03T02:48:58.262Z,82
2023-03-03T02:50:05.192Z,82
2023-03-03T02:51:12.639Z,82
2023-03-03T02:52:19.753Z,83
2023-03-03T02:53:29.477Z,83
2023-03-03T02:54:40.520Z,83
2023-03-03T02:55:50.466Z,83
2023-03-03T02:56:58.581Z,83
2023-03-03T02:58:08.425Z,83
2023-03-03T02:59:15.962Z,83
2023-03-03T03:00:26.634Z,83
2023-03-03T03:01:36.587Z,83
2023-03-03T03:02:46.633Z,83
2023-03-03T03:03:53.747Z,83
2023-03-03T03:05:01.795Z,83
2023-03-03T03:06:10.596Z,83
2023-03-03T03:07:20.363Z,83
2023-03-03T03:08:27.341Z,83
2023-03-03T03:09:37.294Z,83
2023-03-03T03:10:44.989Z,83
2023-03-03T03:11:55.584Z,83
2023-03-03T03:13:04.905Z,83
2023-03-03T03:14:16.005Z,83
2023-03-03T03:15:24.252Z,83
2023-03-03T03:16:33.970Z,83
2023-03-03T03:17:40.890Z,83
2023-03-03T03:18:47.945Z,83
2023-03-03T03:19:55.642Z,83
2023-03-03T03:21:05.342Z,83
2023-03-03T03:22:15.306Z,83
2023-03-03T03:23:22.645Z,83
2023-03-03T03:24:29.932Z,83
2023-03-03T03:25:39.367Z,83
2023-03-03T03:26:46.321Z,83
2023-03-03T03:27:56.028Z,83
2023-03-03T03:29:03.591Z,83
2023-03-03T03:30:13.502Z,83
2023-03-03T03:31:21.051Z,83
2023-03-03T03:32:28.308Z,83
2023-03-03T03:33:35.361Z,83
2023-03-03T03:34:42.402Z,84
2023-03-03T03:35:49.448Z,83
2023-03-03T03:36:56.508Z,84
2023-03-03T03:38:03.555Z,83
2023-03-03T03:39:13.262Z,84
2023-03-03T03:40:20.496Z,84
2023-03-03T03:41:28.057Z,84
2023-03-03T03:42:35.074Z,84
2023-03-03T03:43:42.009Z,84
2023-03-03T03:44:49.030Z,84
2023-03-03T03:45:56.703Z,84
2023-03-03T03:47:03.725Z,84
2023-03-03T03:48:14.214Z,84
2023-03-03T03:49:22.322Z,83
2023-03-03T03:50:30.073Z,83
2023-03-03T03:51:37.826Z,83
2023-03-03T03:52:45.598Z,83
2023-03-03T03:53:55.355Z,83
2023-03-03T03:55:03.211Z,83
2023-03-03T03:56:10.631Z,83
2023-03-03T03:57:17.716Z,83
2023-03-03T03:58:24.821Z,83
2023-03-03T03:59:32.363Z,83
2023-03-03T04:00:39.448Z,83
2023-03-03T04:01:46.499Z,83
2023-03-03T04:02:53.796Z,83
2023-03-03T04:04:01.961Z,83
2023-03-03T04:05:11.851Z,83
2023-03-03T04:06:18.838Z,83
2023-03-03T04:07:25.835Z,83
2023-03-03T04:08:32.850Z,83
2023-03-03T04:09:40.769Z,84
2023-03-03T04:10:48.152Z,84
2023-03-03T04:11:57.763Z,84
2023-03-03T04:13:04.791Z,84
2023-03-03T04:14:12.312Z,83
2023-03-03T04:15:20.250Z,84
2023-03-03T04:16:29.864Z,84
2023-03-03T04:17:37.768Z,84
2023-03-03T04:18:46.536Z,84
2023-03-03T04:19:53.596Z,83
2023-03-03T04:21:01.354Z,84
2023-03-03T04:22:08.923Z,84
2023-03-03T04:23:20.208Z,83
2023-03-03T04:24:29.533Z,83
2023-03-03T04:25:36.685Z,83
2023-03-03T04:26:46.290Z,83
2023-03-03T04:27:53.195Z,83
2023-03-03T04:29:00.760Z,83
2023-03-03T04:30:08.939Z,83
2023-03-03T04:31:20.824Z,83
2023-03-03T04:32:27.784Z,83
2023-03-03T04:33:37.307Z,83
2023-03-03T04:34:50.903Z,83
2023-03-03T04:35:57.188Z,83
2023-03-03T04:37:04.139Z,83
2023-03-03T04:38:12.854Z,83
2023-03-03T04:39:19.996Z,84
2023-03-03T04:40:27.208Z,84
2023-03-03T04:41:37.321Z,84
2023-03-03T04:42:47.352Z,84
2023-03-03T04:43:54.317Z,84
2023-03-03T04:45:01.947Z,84
2023-03-03T04:46:10.141Z,84
2023-03-03T04:47:19.881Z,84
2023-03-03T04:48:28.624Z,84
2023-03-03T04:49:36.559Z,84
2023-03-03T04:50:43.524Z,84
2023-03-03T04:51:53.938Z,84
2023-03-03T04:53:01.124Z,84
2023-03-03T04:54:08.448Z,84
2023-03-03T04:55:16.836Z,84
2023-03-03T04:56:24.478Z,84
2023-03-03T04:57:34.756Z,84
2023-03-03T04:58:42.263Z,84
2023-03-03T04:59:49.564Z,84
2023-03-03T05:00:57.211Z,85
2023-03-03T05:02:05.066Z,85
2023-03-03T05:03:12.519Z,85
2023-03-03T05:04:21.264Z,85
2023-03-03T05:05:31.241Z,86
2023-03-03T05:06:38.887Z,85
2023-03-03T05:07:45.829Z,85
2023-03-03T05:08:52.825Z,85
2023-03-03T05:10:02.733Z,85
2023-03-03T05:11:10.089Z,86
2023-03-03T05:12:17.459Z,86
2023-03-03T05:13:25.656Z,85
2023-03-03T05:14:33.825Z,86
2023-03-03T05:15:44.862Z,86
2023-03-03T05:16:54.808Z,86
2023-03-03T05:18:02.566Z,86
2023-03-03T05:19:11.230Z,86
2023-03-03T05:20:21.078Z,86
2023-03-03T05:21:28.054Z,87
2023-03-03T05:22:35.039Z,86
2023-03-03T05:23:42.038Z,86
2023-03-03T05:24:49.216Z,86
2023-03-03T05:25:57.018Z,86
2023-03-03T05:27:05.378Z,86
2023-03-03T05:28:12.433Z,87
2023-03-03T05:29:20.124Z,86
2023-03-03T05:30:27.106Z,87
2023-03-03T05:31:37.200Z,86
2023-03-03T05:32:44.117Z,87
2023-03-03T05:33:51.389Z,87
2023-03-03T05:34:58.359Z,87
2023-03-03T05:36:07.832Z,87
2023-03-03T05:37:14.800Z,87
2023-03-03T05:38:21.961Z,87
2023-03-03T05:39:31.669Z,87
2023-03-03T05:40:38.802Z,87
2023-03-03T05:41:45.985Z,87
2023-03-03T05:42:53.117Z,87
2023-03-03T05:44:02.855Z,87
2023-03-03T05:45:10.503Z,87
2023-03-03T05:46:20.205Z,86
2023-03-03T05:47:27.924Z,87
2023-03-03T05:48:34.943Z,87
2023-03-03T05:49:43.094Z,87
2023-03-03T05:50:50.881Z,87
2023-03-03T05:52:00.995Z,87
2023-03-03T05:53:08.080Z,87
2023-03-03T05:54:15.188Z,86
2023-03-03T05:55:25.293Z,86
2023-03-03T05:56:34.233Z,86
2023-03-03T05:57:41.234Z,86
2023-03-03T05:58:48.960Z,86
2023-03-03T05:59:55.982Z,87
2023-03-03T06:01:02.931Z,86
2023-03-03T06:02:10.053Z,86
2023-03-03T06:03:17.015Z,87
2023-03-03T06:04:23.807Z,87
2023-03-03T06:05:31.634Z,87
2023-03-03T06:06:38.759Z,87
2023-03-03T06:07:45.724Z,87
2023-03-03T06:08:52.700Z,86
2023-03-03T06:10:01.914Z,87
2023-03-03T06:11:09.403Z,87
2023-03-03T06:12:16.373Z,87
2023-03-03T06:13:23.403Z,87
2023-03-03T06:14:30.371Z,86
2023-03-03T06:15:37.519Z,86
2023-03-03T06:16:44.567Z,86
2023-03-03T06:17:51.472Z,86
2023-03-03T06:19:00.040Z,86
2023-03-03T06:20:07.000Z,87
2023-03-03T06:21:17.348Z,87
2023-03-03T06:22:24.268Z,87
2023-03-03T06:23:31.206Z,86
2023-03-03T06:24:40.034Z,86
2023-03-03T06:25:47.072Z,87
2023-03-03T06:26:57.193Z,87
2023-03-03T06:28:07.051Z,87
2023-03-03T06:29:15.581Z,86
2023-03-03T06:30:20.986Z,86
2023-03-03T06:31:30.882Z,86
2023-03-03T06:32:37.911Z,86
2023-03-03T06:33:45.882Z,86
2023-03-03T06:34:52.853Z,86
2023-03-03T06:35:59.888Z,86
2023-03-03T06:37:07.674Z,85
2023-03-03T06:38:15.076Z,85
2023-03-03T06:39:25.317Z,86
2023-03-03T06:40:32.282Z,85
2023-03-03T06:41:39.350Z,85
2023-03-03T06:42:46.366Z,86
2023-03-03T06:43:53.490Z,85
2023-03-03T06:45:00.580Z,85
2023-03-03T06:46:07.837Z,85
2023-03-03T06:47:14.713Z,85
2023-03-03T06:48:21.656Z,85
2023-03-03T06:49:28.728Z,85
2023-03-03T06:50:35.965Z,85
2023-03-03T06:51:42.961Z,85
2023-03-03T06:52:49.939Z,85
2023-03-03T06:54:01.335Z,85
2023-03-03T06:55:16.425Z,84
2023-03-03T06:56:26.913Z,84
2023-03-03T06:57:33.921Z,85
2023-03-03T06:58:46.292Z,84
2023-03-03T06:59:53.315Z,84
2023-03-03T07:01:05.355Z,85
2023-03-03T07:02:12.417Z,86
2023-03-03T07:03:19.588Z,86
2023-03-03T07:04:27.112Z,86
2023-03-03T07:05:34.178Z,85
2023-03-03T07:06:41.275Z,86
2023-03-03T07:07:48.259Z,85
2023-03-03T07:08:55.299Z,87
2023-03-03T07:10:04.392Z,86
2023-03-03T07:11:17.395Z,86
2023-03-03T07:12:27.582Z,86
2023-03-03T07:13:38.391Z,86
2023-03-03T07:14:45.404Z,86
2023-03-03T07:15:52.420Z,86
2023-03-03T07:16:59.510Z,86
2023-03-03T07:18:09.688Z,85
2023-03-03T07:19:25.802Z,85
2023-03-03T07:20:40.946Z,85
2023-03-03T07:21:49.899Z,85
2023-03-03T07:22:56.823Z,85
2023-03-03T07:24:04.310Z,85
2023-03-03T07:25:21.752Z,86
2023-03-03T07:26:34.659Z,85
2023-03-03T07:27:41.683Z,86
2023-03-03T07:28:49.517Z,87
2023-03-03T07:30:02.369Z,87
2023-03-03T07:31:17.193Z,87
2023-03-03T07:32:32.331Z,86
2023-03-03T07:33:41.372Z,86
2023-03-03T07:34:48.473Z,86
2023-03-03T07:35:55.475Z,86
2023-03-03T07:37:02.508Z,86
2023-03-03T07:38:19.581Z,86
2023-03-03T07:39:26.568Z,86
2023-03-03T07:40:41.022Z,86
2023-03-03T07:41:53.503Z,85
2023-03-03T07:43:05.538Z,85
2023-03-03T07:44:22.663Z,85
2023-03-03T07:45:29.620Z,85
2023-03-03T07:46:37.584Z,85
2023-03-03T07:47:47.430Z,86
2023-03-03T07:48:54.443Z,86
2023-03-03T07:50:01.413Z,86
2023-03-03T07:51:18.603Z,87
2023-03-03T07:52:33.568Z,87
2023-03-03T07:53:43.724Z,86
2023-03-03T07:54:50.802Z,86
2023-03-03T07:55:58.757Z,86
2023-03-03T07:57:05.945Z,86
2023-03-03T07:58:15.601Z,86
2023-03-03T07:59:22.675Z,86
2023-03-03T08:00:29.930Z,85
2023-03-03T08:01:42.773Z,85
2023-03-03T08:02:50.140Z,86
2023-03-03T08:04:03.397Z,86
2023-03-03T08:05:18.528Z,86
2023-03-03T08:06:36.444Z,86
2023-03-03T08:07:43.710Z,86
2023-03-03T08:08:51.229Z,86
2023-03-03T08:09:59.571Z,86
2023-03-03T08:11:06.738Z,86
2023-03-03T08:12:17.207Z,86
2023-03-03T08:13:29.296Z,86
2023-03-03T08:14:36.391Z,86
2023-03-03T08:15:44.852Z,87
2023-03-03T08:17:02.964Z,86
2023-03-03T08:18:15.109Z,86
2023-03-03T08:19:27.958Z,86
2023-03-03T08:20:35.269Z,86
2023-03-03T08:21:45.277Z,86
2023-03-03T08:22:53.481Z,85
2023-03-03T08:24:00.487Z,85
2023-03-03T08:25:10.028Z,85
2023-03-03T08:26:17.164Z,85
2023-03-03T08:27:24.060Z,86
2023-03-03T08:28:31.250Z,85
2023-03-03T08:29:40.144Z,85
2023-03-03T08:30:47.217Z,85
2023-03-03T08:31:54.201Z,85
2023-03-03T08:33:01.380Z,85
2023-03-03T08:34:08.419Z,85
2023-03-03T08:35:15.502Z,85
2023-03-03T08:36:22.585Z,85
2023-03-03T08:37:29.743Z,87
2023-03-03T08:38:36.664Z,86
2023-03-03T08:39:43.663Z,86
2023-03-03T08:40:50.693Z,86
2023-03-03T08:42:02.141Z,86
2023-03-03T08:43:09.266Z,86
2023-03-03T08:44:16.406Z,85
2023-03-03T08:45:23.346Z,86
2023-03-03T08:46:33.042Z,86
2023-03-03T08:47:40.121Z,86
2023-03-03T08:48:47.084Z,85
2023-03-03T08:49:58.357Z,86
2023-03-03T08:51:07.041Z,87
2023-03-03T08:52:14.099Z,86
2023-03-03T08:53:21.196Z,87
2023-03-03T08:54:28.234Z,86
2023-03-03T08:55:36.123Z,86
2023-03-03T08:56:43.989Z,86
2023-03-03T08:57:50.944Z,86
2023-03-03T08:59:02.770Z,86
2023-03-03T09:00:05.140Z,86
2023-03-03T09:01:12.606Z,86
2023-03-03T09:02:23.110Z,86
2023-03-03T09:03:30.763Z,86
2023-03-03T09:04:41.131Z,86
2023-03-03T09:05:48.125Z,86
2023-03-03T09:06:54.964Z,86
2023-03-03T09:08:05.518Z,86
2023-03-03T09:09:12.399Z,86
2023-03-03T09:10:19.409Z,85
2023-03-03T09:11:27.287Z,85
2023-03-03T09:12:34.175Z,86
2023-03-03T09:13:48.944Z,85
2023-03-03T09:14:55.797Z,86
2023-03-03T09:16:11.378Z,86
2023-03-03T09:17:18.377Z,86
2023-03-03T09:18:28.280Z,86
2023-03-03T09:19:37.186Z,87
2023-03-03T09:20:42.210Z,87
2023-03-03T09:21:50.081Z,86
2023-03-03T09:23:03.956Z,86
2023-03-03T09:24:21.776Z,86
2023-03-03T09:25:31.670Z,86
2023-03-03T09:26:38.844Z,86
2023-03-03T09:27:48.957Z,86
2023-03-03T09:28:57.990Z,86
2023-03-03T09:30:15.162Z,87
2023-03-03T09:31:30.240Z,86
2023-03-03T09:32:42.161Z,86
2023-03-03T09:33:49.011Z,87
2023-03-03T09:34:56.507Z,87
2023-03-03T09:36:03.780Z,86
2023-03-03T09:37:15.722Z,87
2023-03-03T09:38:28.240Z,86
2023-03-03T09:39:36.267Z,87
2023-03-03T09:40:43.280Z,86
2023-03-03T09:41:58.224Z,86
2023-03-03T09:43:08.838Z,87
2023-03-03T09:44:23.795Z,87
2023-03-03T09:45:35.963Z,86
2023-03-03T09:46:43.013Z,87
2023-03-03T09:48:02.927Z,86
2023-03-03T09:49:14.907Z,86
2023-03-03T09:50:30.567Z,86
2023-03-03T09:51:45.688Z,86
2023-03-03T09:52:52.688Z,86
2023-03-03T09:54:09.659Z,86
2023-03-03T09:55:20.031Z,86
2023-03-03T09:56:37.887Z,87
2023-03-03T09:58:04.650Z,86
2023-03-03T09:59:05.096Z,86
2023-03-03T10:00:20.329Z,86
2023-03-03T10:01:35.065Z,88
2023-03-03T10:02:51.894Z,87
2023-03-03T10:03:56.887Z,87
2023-03-03T10:05:16.767Z,87
2023-03-03T10:06:28.833Z,87
2023-03-03T10:07:42.507Z,87
2023-03-03T10:08:54.831Z,86
2023-03-03T10:10:04.718Z,86
2023-03-03T10:11:19.499Z,86
2023-03-03T10:12:31.511Z,87
2023-03-03T10:13:44.367Z,87
2023-03-03T10:15:01.534Z,87
2023-03-03T10:16:16.545Z,86
2023-03-03T10:17:37.126Z,86
2023-03-03T10:18:51.655Z,86
2023-03-03T10:20:03.615Z,87
2023-03-03T10:21:15.263Z,87
2023-03-03T10:22:29.634Z,86
2023-03-03T10:23:46.645Z,87
2023-03-03T10:24:57.944Z,87
2023-03-03T10:26:10.143Z,87
2023-03-03T10:27:21.403Z,87
2023-03-03T10:28:38.324Z,88
2023-03-03T10:29:55.348Z,87
2023-03-03T10:31:11.712Z,87
2023-03-03T10:32:14.631Z,87
2023-03-03T10:33:31.370Z,87
2023-03-03T10:34:45.976Z,87
2023-03-03T10:36:07.199Z,86
2023-03-03T10:37:15.208Z,87
2023-03-03T10:38:34.601Z,87
2023-03-03T10:39:43.946Z,87
2023-03-03T10:40:59.078Z,86
2023-03-03T10:42:08.867Z,86
2023-03-03T10:43:30.943Z,86
2023-03-03T10:44:33.725Z,87
2023-03-03T10:45:50.820Z,87
2023-03-03T10:47:05.609Z,87
2023-03-03T10:48:17.692Z,87
2023-03-03T10:49:29.581Z,87
2023-03-03T10:50:46.911Z,87
2023-03-03T10:51:53.803Z,87
2023-03-03T10:53:05.830Z,87
2023-03-03T10:54:20.303Z,88
2023-03-03T10:55:29.857Z,87
2023-03-03T10:56:51.985Z,87
2023-03-03T10:57:56.686Z,87
2023-03-03T10:59:08.738Z,87
2023-03-03T11:00:25.898Z,87
2023-03-03T11:01:39.734Z,87
2023-03-03T11:02:54.843Z,86
2023-03-03T11:04:09.881Z,86
2023-03-03T11:05:26.951Z,87
2023-03-03T11:06:38.146Z,86
2023-03-03T11:07:50.124Z,86
2023-03-03T11:09:04.967Z,86
2023-03-03T11:10:18.024Z,87
2023-03-03T11:11:37.241Z,87
2023-03-03T11:12:47.050Z,87
2023-03-03T11:14:05.293Z,86
2023-03-03T11:15:12.414Z,87
2023-03-03T11:16:25.875Z,87
2023-03-03T11:17:42.850Z,86
2023-03-03T11:19:01.848Z,87
2023-03-03T11:20:10.964Z,86
2023-03-03T11:21:23.298Z,86
2023-03-03T11:22:35.669Z,86
2023-03-03T11:23:45.832Z,86
2023-03-03T11:25:05.368Z,86
2023-03-03T11:26:20.330Z,86
2023-03-03T11:27:32.531Z,86
2023-03-03T11:28:44.547Z,86
2023-03-03T11:29:59.377Z,87
2023-03-03T11:31:07.696Z,86
2023-03-03T11:32:19.784Z,86
2023-03-03T11:33:35.755Z,86
2023-03-03T11:34:51.449Z,87
2023-03-03T11:36:00.549Z,87
2023-03-03T11:37:15.245Z,87
2023-03-03T11:38:27.554Z,87
2023-03-03T11:39:43.364Z,87
2023-03-03T11:40:50.442Z,86
2023-03-03T11:41:57.384Z,86
2023-03-03T11:43:23.301Z,87
2023-03-03T11:44:27.477Z,86
2023-03-03T11:45:39.708Z,86
2023-03-03T11:46:51.603Z,86
2023-03-03T11:47:58.576Z,86
2023-03-03T11:49:16.636Z,87
2023-03-03T11:50:28.676Z,86
2023-03-03T11:51:46.692Z,86
2023-03-03T11:52:56.390Z,86
2023-03-03T11:54:09.363Z,87
2023-03-03T11:55:20.336Z,87
2023-03-03T11:56:31.658Z,86
2023-03-03T11:57:39.633Z,86
2023-03-03T11:58:56.210Z,87
2023-03-03T12:00:05.959Z,87
2023-03-03T12:01:23.027Z,87
2023-03-03T12:02:38.710Z,87
2023-03-03T12:03:51.731Z,87
2023-03-03T12:05:06.399Z,87
2023-03-03T12:06:18.418Z,86
2023-03-03T12:07:33.248Z,87
2023-03-03T12:08:45.251Z,86
2023-03-03T12:10:04.983Z,86
2023-03-03T12:11:22.020Z,86
2023-03-03T12:12:29.775Z,86
2023-03-03T12:13:36.834Z,86
2023-03-03T12:14:50.310Z,86
2023-03-03T12:15:57.391Z,86
2023-03-03T12:17:07.526Z,86
2023-03-03T12:18:20.318Z,86
2023-03-03T12:19:41.286Z,86
2023-03-03T12:20:58.365Z,86
2023-03-03T12:22:15.606Z,86
2023-03-03T12:23:28.339Z,86
2023-03-03T12:24:43.949Z,86
2023-03-03T12:25:55.924Z,86
2023-03-03T12:27:05.890Z,86
2023-03-03T12:28:17.899Z,86
2023-03-03T12:29:28.865Z,86
2023-03-03T12:30:38.528Z,85
2023-03-03T12:31:48.586Z,85
2023-03-03T12:32:58.284Z,85
2023-03-03T12:34:13.880Z,85
2023-03-03T12:35:24.211Z,85
2023-03-03T12:36:36.224Z,85
2023-03-03T12:37:49.438Z,85
2023-03-03T12:39:01.343Z,85
2023-03-03T12:40:13.441Z,85
2023-03-03T12:41:20.299Z,85
2023-03-03T12:42:37.971Z,85
2023-03-03T12:43:52.774Z,85
2023-03-03T12:45:03.457Z,85
2023-03-03T12:46:15.115Z,85
2023-03-03T12:47:30.778Z,85
2023-03-03T12:48:45.579Z,85
2023-03-03T12:50:06.387Z,86
2023-03-03T12:51:06.768Z,86
2023-03-03T12:52:21.359Z,86
2023-03-03T12:53:33.388Z,86
2023-03-03T12:54:50.230Z,86
2023-03-03T12:56:07.186Z,85
2023-03-03T12:57:14.742Z,85
2023-03-03T12:58:30.246Z,85
2023-03-03T12:59:41.752Z,85
2023-03-03T13:00:58.856Z,85
2023-03-03T13:02:10.670Z,85
2023-03-03T13:03:23.806Z,85
2023-03-03T13:04:36.893Z,85
2023-03-03T13:05:48.990Z,85
2023-03-03T13:07:07.021Z,85
2023-03-03T13:08:17.190Z,85
2023-03-03T13:09:34.020Z,85
2023-03-03T13:10:49.888Z,85
2023-03-03T13:12:04.478Z,85
2023-03-03T13:13:19.353Z,85
2023-03-03T13:14:31.931Z,85
2023-03-03T13:15:55.105Z,85
2023-03-03T13:16:57.015Z,86
2023-03-03T13:18:09.877Z,86
2023-03-03T13:19:25.060Z,86
2023-03-03T13:20:40.824Z,85
2023-03-03T13:21:50.565Z,85
2023-03-03T13:23:02.496Z,85
2023-03-03T13:24:18.017Z,85
2023-03-03T13:25:27.515Z,85
2023-03-03T13:26:44.444Z,85
2023-03-03T13:27:52.048Z,86
2023-03-03T13:28:59.056Z,85
2023-03-03T13:30:16.291Z,85
2023-03-03T13:31:26.816Z,85
2023-03-03T13:32:37.312Z,85
2023-03-03T13:33:47.891Z,86
2023-03-03T13:34:58.210Z,86
2023-03-03T13:36:05.075Z,85
2023-03-03T13:37:14.669Z,85
2023-03-03T13:38:23.960Z,85
2023-03-03T13:39:34.382Z,85
2023-03-03T13:40:46.171Z,86
2023-03-03T13:41:57.989Z,85
2023-03-03T13:43:06.884Z,85
2023-03-03T13:44:18.639Z,85
2023-03-03T13:45:35.337Z,85
2023-03-03T13:46:54.682Z,85
2023-03-03T13:48:11.878Z,85
2023-03-03T13:49:31.904Z,85
2023-03-03T13:50:44.184Z,86
2023-03-03T13:51:59.762Z,86
2023-03-03T13:53:10.702Z,86
2023-03-03T13:54:29.048Z,86
2023-03-03T13:55:46.093Z,86
2023-03-03T13:56:59.193Z,86
2023-03-03T13:58:16.337Z,85
2023-03-03T13:59:30.876Z,85
2023-03-03T14:00:42.840Z,85
2023-03-03T14:01:57.805Z,85
2023-03-03T14:03:05.573Z,85
2023-03-03T14:04:24.614Z,85
2023-03-03T14:05:39.936Z,85
2023-03-03T14:06:54.713Z,85
2023-03-03T14:08:07.397Z,85
2023-03-03T14:09:27.141Z,86
2023-03-03T14:10:39.126Z,85
2023-03-03T14:11:51.294Z,86
2023-03-03T14:13:03.298Z,85
2023-03-03T14:14:15.687Z,85
2023-03-03T14:15:32.714Z,85
2023-03-03T14:16:52.745Z,85
2023-03-03T14:18:06.016Z,85
2023-03-03T14:19:23.338Z,85
2023-03-03T14:20:35.434Z,85
2023-03-03T14:21:45.881Z,85
2023-03-03T14:22:55.715Z,85
2023-03-03T14:24:07.378Z,85
2023-03-03T14:25:22.569Z,85
2023-03-03T14:26:32.301Z,85
2023-03-03T14:27:49.322Z,85
2023-03-03T14:29:06.864Z,84
2023-03-03T14:30:17.270Z,85
2023-03-03T14:31:35.002Z,85
2023-03-03T14:32:45.579Z,84
2023-03-03T14:33:49.357Z,84
2023-03-03T14:35:01.453Z,86
2023-03-03T14:36:08.290Z,85
2023-03-03T14:37:15.807Z,85
2023-03-03T14:38:30.474Z,85
2023-03-03T14:39:40.422Z,85
2023-03-03T14:40:50.078Z,85
2023-03-03T14:41:57.019Z,85
2023-03-03T14:43:09.048Z,85
2023-03-03T14:44:26.202Z,84
2023-03-03T14:45:33.949Z,85
2023-03-03T14:46:40.802Z,84
2023-03-03T14:47:48.222Z,85
2023-03-03T14:48:55.954Z,84
2023-03-03T14:50:03.162Z,84
2023-03-03T14:51:10.483Z,84
2023-03-03T14:52:27.577Z,84
2023-03-03T14:53:35.727Z,84
2023-03-03T14:54:43.788Z,84
2023-03-03T14:55:53.827Z,84
2023-03-03T14:57:02.453Z,84
2023-03-03T14:58:14.805Z,84
2023-03-03T14:59:29.662Z,84
2023-03-03T15:00:36.949Z,84
2023-03-03T15:01:44.008Z,84
2023-03-03T15:02:51.754Z,84
2023-03-03T15:04:06.692Z,84
2023-03-03T15:05:21.798Z,84
2023-03-03T15:06:29.130Z,84
2023-03-03T15:07:43.935Z,83
2023-03-03T15:08:50.799Z,83
2023-03-03T15:10:02.817Z,83
2023-03-03T15:11:09.731Z,83
2023-03-03T15:12:21.658Z,83
2023-03-03T15:13:29.251Z,83
2023-03-03T15:14:36.533Z,83
2023-03-03T15:15:43.566Z,83
2023-03-03T15:16:55.480Z,83
2023-03-03T15:18:05.908Z,83
2023-03-03T15:19:12.784Z,83
2023-03-03T15:20:25.489Z,83
2023-03-03T15:21:38.910Z,83
2023-03-03T15:22:49.134Z,82
2023-03-03T15:24:04.751Z,82
2023-03-03T15:25:20.777Z,83
2023-03-03T15:26:35.328Z,83
2023-03-03T15:27:45.216Z,82
2023-03-03T15:28:52.088Z,82
2023-03-03T15:29:59.989Z,82
2023-03-03T15:31:17.006Z,82
2023-03-03T15:32:32.002Z,82
2023-03-03T15:33:44.782Z,82
2023-03-03T15:35:04.700Z,82
2023-03-03T15:36:19.252Z,82
2023-03-03T15:37:38.414Z,82
2023-03-03T15:38:49.314Z,83
2023-03-03T15:39:59.164Z,82
2023-03-03T15:41:16.281Z,81
2023-03-03T15:42:29.590Z,81
2023-03-03T15:43:45.375Z,81
2023-03-03T15:44:52.363Z,81
2023-03-03T15:46:04.309Z,82
2023-03-03T15:47:22.751Z,82
2023-03-03T15:48:37.183Z,82
2023-03-03T15:49:49.105Z,81
2023-03-03T15:51:01.234Z,81
2023-03-03T15:52:13.378Z,80
2023-03-03T15:53:26.646Z,80
2023-03-03T15:54:43.745Z,81
2023-03-03T15:55:57.109Z,81
2023-03-03T15:57:14.152Z,80
2023-03-03T15:58:21.237Z,81
2023-03-03T15:59:30.357Z,81
2023-03-03T16:00:47.404Z,81
2023-03-03T16:02:04.530Z,81
2023-03-03T16:03:19.057Z,81
2023-03-03T16:04:36.793Z,81
2023-03-03T16:05:43.677Z,81
2023-03-03T16:06:55.783Z,81
2023-03-03T16:08:05.156Z,81
2023-03-03T16:09:22.207Z,81
2023-03-03T16:10:39.351Z,81
2023-03-03T16:11:56.386Z,81
2023-03-03T16:13:06.756Z,81
2023-03-03T16:14:19.293Z,81
2023-03-03T16:15:36.528Z,81
2023-03-03T16:16:46.086Z,81
2023-03-03T16:18:01.173Z,81
2023-03-03T16:19:16.838Z,81
2023-03-03T16:20:29.820Z,81
2023-03-03T16:21:36.759Z,81
2023-03-03T16:22:48.712Z,81
2023-03-03T16:24:01.515Z,81
2023-03-03T16:25:14.105Z,82
2023-03-03T16:26:31.314Z,82
2023-03-03T16:27:44.117Z,82
2023-03-03T16:28:56.074Z,82
2023-03-03T16:30:13.125Z,82
2023-03-03T16:31:23.269Z,82
2023-03-03T16:32:32.904Z,83
2023-03-03T16:33:40.719Z,83
2023-03-03T16:34:47.643Z,82
2023-03-03T16:35:59.681Z,82
2023-03-03T16:37:09.404Z,82
2023-03-03T16:38:21.417Z,82
2023-03-03T16:39:35.413Z,82
2023-03-03T16:40:47.327Z,82
2023-03-03T16:41:55.968Z,83
2023-03-03T16:43:05.640Z,83
2023-03-03T16:44:23.265Z,83